Time;durP1;ratioP1;P1;durP2;ratioP2;P2;SDS_P1;SDS_P2;PMS_P1;PMS_P2;Temp;Humidity;BMP_temperature;BMP_pressure;BME280_temperature;BME280_humidity;BME280_pressure;Samples;Min_cycle;Max_cycle;Signal;HPM_P1;HPM_P2
2021/06/27 00:00:33;;;;;;;13.67;12.37;;;;;;;20.21;61.55;98071.25;8253918;28;20517;-61
2021/06/27 00:04:36;;;;;;;22.87;18.00;;;;;;;20.20;61.18;98077.47;8255687;28;20202;-60
2021/06/27 00:08:40;;;;;;;13.90;9.23;;;;;;;20.19;60.99;98075.81;8255116;28;20233;-61
2021/06/27 00:12:45;;;;;;;20.80;16.20;;;;;;;20.06;61.39;98075.97;8281667;28;20233;-61
2021/06/27 00:16:49;;;;;;;13.70;12.13;;;;;;;20.05;61.37;98069.88;8287129;28;20228;-61
2021/06/27 00:20:54;;;;;;;12.97;8.90;;;;;;;19.98;61.38;98058.19;8286917;28;20418;-61
2021/06/27 00:24:59;;;;;;;11.17;8.13;;;;;;;19.90;61.62;98055.38;8286735;28;20504;-62
2021/06/27 00:29:01;;;;;;;8.90;8.00;;;;;;;19.88;61.70;98055.47;8286811;28;20482;-61
2021/06/27 00:33:05;;;;;;;9.10;8.30;;;;;;;19.90;61.75;98060.63;8286377;28;20202;-61
2021/06/27 00:37:09;;;;;;;11.13;7.23;;;;;;;19.96;61.60;98061.91;8286471;28;20221;-61
2021/06/27 00:41:13;;;;;;;27.47;22.77;;;;;;;19.89;61.39;98065.03;8286170;28;20531;-61
2021/06/27 00:45:17;;;;;;;24.27;19.13;;;;;;;19.81;61.54;98059.56;8286127;28;20523;-60
2021/06/27 00:49:20;;;;;;;37.73;26.17;;;;;;;19.80;61.53;98057.91;8264409;28;20211;-61
2021/06/27 00:53:24;;;;;;;13.70;10.47;;;;;;;19.79;61.22;98052.78;8237185;28;20218;-61
2021/06/27 00:57:28;;;;;;;9.63;8.70;;;;;;;19.69;61.74;98056.09;8235952;28;20335;-61
2021/06/27 01:01:31;;;;;;;10.87;9.67;;;;;;;19.66;61.70;98051.06;8250702;28;20230;-61
2021/06/27 01:05:35;;;;;;;9.80;8.03;;;;;;;19.67;61.24;98052.75;8253015;28;20227;-61
2021/06/27 01:09:39;;;;;;;9.07;7.50;;;;;;;19.67;60.93;98049.31;8250694;28;20226;-61
2021/06/27 01:13:44;;;;;;;8.13;7.20;;;;;;;19.63;60.92;98051.34;8221224;29;20207;-61
2021/06/27 01:17:48;;;;;;;8.93;7.13;;;;;;;19.61;61.48;98055.88;8220838;29;20230;-61
2021/06/27 01:21:53;;;;;;;8.10;7.23;;;;;;;19.61;61.41;98062.91;8221289;29;20231;-61
2021/06/27 01:25:56;;;;;;;10.93;9.37;;;;;;;19.52;61.44;98062.69;8220792;29;20202;-61
2021/06/27 01:29:59;;;;;;;27.43;19.10;;;;;;;19.48;61.73;98070.97;8220711;29;20215;-61
2021/06/27 01:34:02;;;;;;;22.30;18.07;;;;;;;19.47;61.53;98070.09;8220495;29;20223;-61
2021/06/27 01:38:07;;;;;;;20.57;16.37;;;;;;;19.42;61.34;98072.28;8220697;29;20203;-61
2021/06/27 01:42:09;;;;;;;29.20;24.00;;;;;;;19.38;61.67;98073.47;8220956;29;20231;-61
2021/06/27 01:46:12;;;;;;;30.63;23.90;;;;;;;19.33;61.34;98070.38;8221065;29;20210;-61
2021/06/27 01:50:15;;;;;;;15.10;10.33;;;;;;;19.29;61.42;98064.53;8220364;29;20207;-61
2021/06/27 01:54:19;;;;;;;15.40;12.90;;;;;;;19.27;61.79;98055.94;8220231;29;20295;-61
2021/06/27 01:58:22;;;;;;;18.67;9.73;;;;;;;19.32;61.49;98059.03;8219852;29;20210;-61
2021/06/27 02:02:25;;;;;;;9.93;7.90;;;;;;;19.29;61.29;98053.19;8219862;29;20549;-61
2021/06/27 02:06:29;;;;;;;8.70;7.47;;;;;;;19.17;61.53;98046.25;8219678;28;20227;-61
2021/06/27 02:10:33;;;;;;;8.17;6.90;;;;;;;19.19;60.93;98046.97;8229144;28;20249;-61
2021/06/27 02:14:36;;;;;;;8.07;6.90;;;;;;;19.21;61.31;98047.69;8252244;28;20225;-60
2021/06/27 02:18:40;;;;;;;13.77;7.53;;;;;;;19.07;61.49;98044.34;8252099;28;20202;-61
2021/06/27 02:22:43;;;;;;;11.07;7.57;;;;;;;19.05;61.32;98051.50;8251940;28;20230;-61
2021/06/27 02:26:47;;;;;;;7.53;6.83;;;;;;;19.02;61.27;98059.63;8251619;28;20206;-61
2021/06/27 02:30:50;;;;;;;7.50;6.70;;;;;;;18.98;61.45;98065.22;8251200;28;20213;-61
2021/06/27 02:34:53;;;;;;;7.80;6.60;;;;;;;18.99;61.13;98059.03;8251112;28;20202;-61
2021/06/27 02:38:57;;;;;;;9.73;7.20;;;;;;;18.90;61.57;98050.06;8251019;28;20212;-61
2021/06/27 02:43:01;;;;;;;8.87;7.93;;;;;;;18.74;62.37;98047.78;8250756;28;20412;-61
2021/06/27 02:47:04;;;;;;;13.03;7.57;;;;;;;18.90;61.58;98050.91;8250843;28;20305;-61
2021/06/27 02:51:07;;;;;;;10.53;8.13;;;;;;;18.91;61.72;98051.75;8250405;28;20213;-61
2021/06/27 02:55:11;;;;;;;11.43;7.23;;;;;;;18.89;61.38;98046.63;8250482;28;20481;-60
2021/06/27 02:59:15;;;;;;;12.17;8.57;;;;;;;18.81;61.65;98045.53;8250153;28;20214;-60
2021/06/27 03:03:18;;;;;;;10.60;7.87;;;;;;;18.83;61.91;98049.72;8249578;28;20237;-61
2021/06/27 03:07:21;;;;;;;10.97;7.33;;;;;;;18.81;62.25;98041.16;8249969;28;20222;-61
2021/06/27 03:11:24;;;;;;;16.30;7.60;;;;;;;18.73;61.83;98036.47;8249330;28;20264;-61
2021/06/27 03:15:28;;;;;;;12.13;7.30;;;;;;;18.78;62.26;98041.34;8249174;28;20209;-61
2021/06/27 03:19:31;;;;;;;10.63;7.50;;;;;;;18.68;62.08;98040.38;8248937;28;20202;-61
2021/06/27 03:23:34;;;;;;;9.70;7.27;;;;;;;18.69;62.05;98037.63;8249224;28;20261;-61
2021/06/27 03:27:37;;;;;;;11.37;7.20;;;;;;;18.70;62.15;98044.53;8249047;28;20350;-61
2021/06/27 03:31:41;;;;;;;8.97;6.63;;;;;;;18.82;61.85;98042.78;8249167;28;20213;-61
2021/06/27 03:35:44;;;;;;;8.87;7.27;;;;;;;18.73;61.87;98046.94;8249088;28;20202;-61
2021/06/27 03:39:47;;;;;;;10.67;7.50;;;;;;;18.76;61.94;98048.50;8249244;28;20210;-61
2021/06/27 03:43:50;;;;;;;14.73;7.53;;;;;;;18.74;61.66;98050.41;8249309;28;20302;-61
2021/06/27 03:47:54;;;;;;;9.00;7.33;;;;;;;18.77;61.62;98060.63;8248847;28;20202;-61
2021/06/27 03:51:57;;;;;;;9.73;7.23;;;;;;;18.81;61.40;98049.00;8248691;28;20210;-61
2021/06/27 03:56:00;;;;;;;10.43;7.17;;;;;;;18.76;61.76;98048.50;8249103;28;20209;-61
2021/06/27 04:00:05;;;;;;;10.87;7.07;;;;;;;18.79;62.03;98045.66;8248539;28;20203;-61
2021/06/27 04:04:09;;;;;;;11.00;7.43;;;;;;;18.83;61.75;98038.38;8248970;28;20203;-61
2021/06/27 04:08:12;;;;;;;9.37;7.70;;;;;;;18.83;61.79;98035.75;8248694;28;20222;-61
2021/06/27 04:12:15;;;;;;;10.57;7.50;;;;;;;18.82;62.09;98023.59;8248612;28;20341;-61
2021/06/27 04:16:18;;;;;;;9.70;7.67;;;;;;;18.76;62.75;98030.13;8249038;28;20202;-61
2021/06/27 04:20:22;;;;;;;9.40;7.37;;;;;;;18.98;62.18;98028.50;8248408;28;20456;-61
2021/06/27 04:24:25;;;;;;;8.87;7.83;;;;;;;19.00;62.68;98018.72;8248571;28;20203;-61
2021/06/27 04:28:28;;;;;;;10.90;8.73;;;;;;;19.03;62.68;98019.31;8248211;28;20206;-61
2021/06/27 04:32:31;;;;;;;9.27;8.33;;;;;;;19.09;62.70;98023.25;8252889;28;20214;-61
2021/06/27 04:36:35;;;;;;;11.33;7.97;;;;;;;19.22;62.42;98028.38;8254534;28;20214;-61
2021/06/27 04:40:38;;;;;;;10.87;8.67;;;;;;;19.27;62.61;98040.19;8254341;28;20575;-61
2021/06/27 04:44:41;;;;;;;13.03;8.37;;;;;;;19.28;62.32;98031.31;8254089;28;20273;-61
2021/06/27 04:48:44;;;;;;;12.57;7.53;;;;;;;19.40;62.24;98019.03;8254597;28;20210;-61
2021/06/27 04:52:51;;;;;;;11.40;7.60;;;;;;;19.57;62.02;98008.97;8254419;28;20210;-61
2021/06/27 04:56:54;;;;;;;11.00;8.63;;;;;;;19.56;62.37;98016.00;8254109;28;20225;-61
2021/06/27 05:00:57;;;;;;;11.33;8.33;;;;;;;19.49;61.67;98014.84;8253517;28;20230;-61
2021/06/27 05:05:01;;;;;;;10.50;8.70;;;;;;;19.39;62.21;98022.63;8253601;28;20223;-61
2021/06/27 05:09:05;;;;;;;10.00;8.40;;;;;;;19.80;61.74;98022.88;8253384;28;20206;-61
2021/06/27 05:13:08;;;;;;;9.30;8.40;;;;;;;19.90;61.73;98006.25;8252865;28;20422;-61
2021/06/27 05:17:11;;;;;;;9.23;7.93;;;;;;;20.16;61.56;97998.00;8252951;28;20369;-61
2021/06/27 05:21:14;;;;;;;11.50;8.20;;;;;;;20.23;62.21;97995.72;8252681;28;20230;-61
2021/06/27 05:25:18;;;;;;;8.87;7.67;;;;;;;20.39;61.41;97982.94;8252462;28;20203;-61
2021/06/27 05:29:21;;;;;;;8.63;7.70;;;;;;;20.22;60.33;97987.00;8252356;28;20385;-61
2021/06/27 05:33:23;;;;;;;8.90;7.23;;;;;;;20.39;60.99;97982.09;8252627;28;20207;-61
2021/06/27 05:37:26;;;;;;;10.00;8.70;;;;;;;20.07;61.40;97977.75;8252542;28;20214;-61
2021/06/27 05:41:30;;;;;;;8.23;7.43;;;;;;;20.40;60.61;97981.16;8251536;28;20239;-61
2021/06/27 05:45:33;;;;;;;9.67;7.60;;;;;;;20.60;60.94;97979.47;8251843;28;20374;-61
2021/06/27 05:49:36;;;;;;;9.60;8.40;;;;;;;20.56;60.53;97985.94;8251906;28;20552;-61
2021/06/27 05:53:40;;;;;;;8.20;7.37;;;;;;;20.72;60.21;97980.25;8251750;28;20369;-61
2021/06/27 05:57:44;;;;;;;7.97;7.13;;;;;;;20.78;59.58;97980.53;8251932;28;20206;-61
2021/06/27 06:01:47;;;;;;;9.77;8.23;;;;;;;20.56;60.52;97986.78;8251597;28;20234;-61
2021/06/27 06:05:50;;;;;;;8.90;8.10;;;;;;;20.77;60.24;98006.97;8251563;28;20233;-61
2021/06/27 06:09:53;;;;;;;8.73;7.93;;;;;;;21.00;59.24;98011.13;8251083;28;20240;-61
2021/06/27 06:13:57;;;;;;;8.83;7.53;;;;;;;21.02;59.01;98009.19;8251399;28;20301;-61
2021/06/27 06:18:00;;;;;;;9.13;8.23;;;;;;;21.02;58.77;98011.81;8251272;28;20226;-61
2021/06/27 06:22:02;;;;;;;8.73;7.80;;;;;;;20.95;59.80;98009.84;8251476;28;20230;-61
2021/06/27 06:26:05;;;;;;;8.47;7.37;;;;;;;21.09;58.43;98017.38;8252182;28;20211;-61
2021/06/27 06:30:11;;;;;;;10.67;8.33;;;;;;;21.28;58.43;98008.69;8251675;28;20508;-61
2021/06/27 06:34:14;;;;;;;12.50;8.17;;;;;;;21.40;58.22;98010.25;8251105;28;20212;-61
2021/06/27 06:38:17;;;;;;;10.33;7.50;;;;;;;21.84;57.45;98020.50;8250846;28;20519;-62
2021/06/27 06:42:20;;;;;;;7.33;6.70;;;;;;;22.15;56.77;98017.72;8250227;28;20231;-62
2021/06/27 06:46:24;;;;;;;9.30;7.77;;;;;;;22.16;56.11;98003.53;8250523;28;20220;-62
2021/06/27 06:50:27;;;;;;;9.77;7.47;;;;;;;22.12;56.26;98012.69;8247753;28;20228;-62
2021/06/27 06:54:30;;;;;;;8.07;7.30;;;;;;;22.25;56.59;98008.81;8249758;28;20384;-62
2021/06/27 06:58:33;;;;;;;8.30;7.20;;;;;;;22.34;56.63;98004.53;8250234;28;20224;-62
2021/06/27 07:02:38;;;;;;;7.80;7.10;;;;;;;22.18;56.88;98010.34;8250244;28;20557;-62
2021/06/27 07:06:41;;;;;;;7.30;6.43;;;;;;;22.30;57.06;98000.50;8250032;28;20219;-62
2021/06/27 07:10:44;;;;;;;7.43;6.20;;;;;;;22.42;56.60;97999.34;8250077;28;20230;-62
2021/06/27 07:14:47;;;;;;;8.23;7.27;;;;;;;22.61;56.40;98008.22;8250060;28;20202;-62
2021/06/27 07:18:51;;;;;;;9.73;8.13;;;;;;;22.80;54.96;98018.72;8249299;28;20211;-62
2021/06/27 07:22:53;;;;;;;9.23;7.10;;;;;;;23.18;55.33;98010.81;8249414;28;20229;-62
2021/06/27 07:26:57;;;;;;;7.00;6.30;;;;;;;23.06;54.66;98007.53;8247118;28;20232;-62
2021/06/27 07:31:00;;;;;;;10.50;7.47;;;;;;;23.04;53.77;98009.50;8249147;28;20198;-62
2021/06/27 07:35:06;;;;;;;7.93;7.13;;;;;;;23.37;52.84;98001.94;8249415;28;20215;-62
2021/06/27 07:39:18;;;;;;;7.50;6.70;;;;;;;23.78;52.77;98011.16;8248314;28;20205;-62
2021/06/27 07:43:21;;;;;;;7.03;6.33;;;;;;;23.98;53.33;97987.22;8246599;28;20222;-62
2021/06/27 07:47:24;;;;;;;6.57;6.07;;;;;;;24.32;51.66;97992.59;8249157;28;20209;-62
2021/06/27 07:51:28;;;;;;;7.87;5.83;;;;;;;24.39;51.45;97988.34;8249415;28;20198;-62
2021/06/27 07:55:31;;;;;;;7.20;6.17;;;;;;;24.53;49.62;97983.50;8247326;28;20214;-62
2021/06/27 07:59:35;;;;;;;6.10;5.43;;;;;;;25.33;50.23;97986.72;8248998;28;20202;-62
2021/06/27 08:03:38;;;;;;;7.30;6.33;;;;;;;25.14;48.97;97986.94;8248925;28;20233;-62
2021/06/27 08:07:42;;;;;;;8.70;5.87;;;;;;;24.72;50.06;97999.16;8254441;28;20220;-62
2021/06/27 08:11:45;;;;;;;5.60;5.03;;;;;;;25.58;48.54;97993.91;8255558;28;20235;-62
2021/06/27 08:15:48;;;;;;;6.10;5.23;;;;;;;25.51;48.73;97981.31;8255630;28;20235;-62
2021/06/27 08:19:51;;;;;;;5.73;5.13;;;;;;;25.98;48.63;97979.88;8253038;28;20305;-62
2021/06/27 08:23:55;;;;;;;6.10;5.50;;;;;;;25.79;48.81;97982.84;8255123;28;20227;-62
2021/06/27 08:27:58;;;;;;;5.70;5.20;;;;;;;25.93;47.35;97974.25;8255169;28;20297;-62
2021/06/27 08:32:00;;;;;;;6.63;5.20;;;;;;;26.10;48.71;97975.91;8255611;28;20211;-62
2021/06/27 08:36:04;;;;;;;6.80;5.00;;;;;;;26.20;46.32;97975.75;8255346;28;20275;-62
2021/06/27 08:40:10;;;;;;;6.13;4.83;;;;;;;26.21;46.41;97969.41;8254655;28;20207;-62
2021/06/27 08:44:13;;;;;;;5.67;5.17;;;;;;;26.55;45.75;97979.00;8254952;28;20235;-62
2021/06/27 08:48:16;;;;;;;5.87;5.37;;;;;;;26.46;45.27;97983.47;8255643;28;20209;-61
2021/06/27 08:52:20;;;;;;;5.30;4.80;;;;;;;26.46;45.12;97986.13;8254816;28;20222;-61
2021/06/27 08:56:24;;;;;;;5.63;4.60;;;;;;;27.03;44.33;97977.22;8254658;28;20217;-61
2021/06/27 09:00:27;;;;;;;5.00;4.50;;;;;;;27.36;43.23;97984.22;8254964;28;20204;-61
2021/06/27 09:04:33;;;;;;;4.93;4.40;;;;;;;27.68;43.50;97980.56;8255377;28;20531;-61
2021/06/27 09:08:36;;;;;;;5.60;4.20;;;;;;;27.76;42.59;97975.19;8255066;28;20223;-61
2021/06/27 09:12:48;;;;;;;4.90;3.97;;;;;;;28.20;41.28;97969.22;8255023;28;20242;-61
2021/06/27 09:17:06;;;;;;;6.30;4.37;;;;;;;27.33;42.41;97971.31;8253966;28;20584;-61
2021/06/27 09:21:08;;;;;;;5.00;4.50;;;;;;;27.73;42.54;97972.06;8254258;28;20205;-61
2021/06/27 09:25:20;;;;;;;5.40;4.20;;;;;;;27.54;42.49;97962.72;8253784;28;20231;-61
2021/06/27 09:29:27;;;;;;;4.60;3.73;;;;;;;27.50;43.01;97967.53;8254310;28;20205;-60
2021/06/27 09:33:33;;;;;;;6.00;4.10;;;;;;;27.74;40.85;97955.94;8254383;28;20332;-61
2021/06/27 09:37:37;;;;;;;4.17;3.83;;;;;;;28.29;41.49;97951.31;8254329;28;20237;-61
2021/06/27 09:41:51;;;;;;;4.33;3.93;;;;;;;28.03;39.55;97952.56;8253727;28;20215;-61
2021/06/27 09:45:57;;;;;;;5.33;4.60;;;;;;;28.73;39.18;97947.03;8253864;28;20408;-61
2021/06/27 09:50:00;;;;;;;4.23;3.83;;;;;;;28.97;38.65;97956.59;8253606;28;20251;-61
2021/06/27 09:54:04;;;;;;;7.00;3.93;;;;;;;29.12;38.14;97951.25;8253425;28;20216;-61
2021/06/27 09:58:14;;;;;;;4.40;4.00;;;;;;;26.79;41.73;97951.59;8253865;28;20209;-61
2021/06/27 10:02:18;;;;;;;4.10;3.80;;;;;;;27.83;39.19;97948.69;8253686;28;20271;-61
2021/06/27 10:06:21;;;;;;;3.90;3.20;;;;;;;27.76;39.23;97943.28;8253500;28;20247;-61
2021/06/27 10:10:24;;;;;;;5.43;3.63;;;;;;;27.52;39.60;97936.28;8253243;28;20427;-61
2021/06/27 10:14:28;;;;;;;3.93;3.53;;;;;;;28.28;38.09;97939.84;8253450;28;20277;-61
2021/06/27 10:18:33;;;;;;;4.57;3.20;;;;;;;27.75;38.73;97943.44;8253392;28;20218;-60
2021/06/27 10:22:36;;;;;;;3.60;3.10;;;;;;;28.62;36.42;97929.72;8253120;28;20358;-61
2021/06/27 10:26:40;;;;;;;3.20;2.87;;;;;;;28.38;34.71;97936.91;8252023;28;20231;-61
2021/06/27 10:30:42;;;;;;;6.07;3.10;;;;;;;28.77;33.92;97929.69;8252609;28;20195;-61
2021/06/27 10:34:48;;;;;;;3.10;2.80;;;;;;;28.25;33.64;97934.88;8253005;28;20330;-61
2021/06/27 10:38:51;;;;;;;3.93;2.90;;;;;;;29.07;33.66;97927.81;8252929;28;20210;-61
2021/06/27 10:42:58;;;;;;;3.10;2.90;;;;;;;29.03;32.72;97930.03;8252375;28;20227;-61
2021/06/27 10:47:01;;;;;;;6.00;3.00;;;;;;;29.27;33.77;97925.41;8252376;28;20204;-61
2021/06/27 10:51:06;;;;;;;2.90;2.70;;;;;;;29.48;32.96;97923.78;8252184;28;20481;-61
2021/06/27 10:55:23;;;;;;;4.20;2.50;;;;;;;28.82;32.14;97919.28;8251979;28;20202;-61
2021/06/27 10:59:59;;;;;;;3.30;3.00;;;;;;;29.13;34.89;97916.44;8252239;28;20205;-62
2021/06/27 11:04:25;;;;;;;2.90;2.70;;;;;;;29.28;34.30;97916.38;8251874;28;20563;-61
2021/06/27 11:08:37;;;;;;;2.70;2.50;;;;;;;29.41;30.80;97919.19;8251571;28;20224;-62
2021/06/27 11:13:14;;;;;;;2.93;2.70;;;;;;;29.53;30.85;97913.34;8250727;28;20232;-61
2021/06/27 11:17:17;;;;;;;4.53;2.70;;;;;;;29.78;30.54;97908.50;8248874;28;20197;-61
2021/06/27 11:21:38;;;;;;;3.53;2.90;;;;;;;29.69;32.81;97906.94;8247225;28;20224;-61
2021/06/27 11:25:44;;;;;;;3.97;2.93;;;;;;;29.92;33.11;97898.75;8247092;28;20238;-62
2021/06/27 11:29:49;;;;;;;3.50;3.10;;;;;;;30.08;31.74;97895.78;8244096;28;20202;-61
2021/06/27 11:34:23;;;;;;;3.10;2.73;;;;;;;29.48;32.03;97895.25;8250411;28;20276;-61
2021/06/27 11:38:39;;;;;;;2.90;2.70;;;;;;;28.89;32.49;97895.41;8250203;28;20208;-61
2021/06/27 11:42:52;;;;;;;3.20;2.90;;;;;;;29.55;31.19;97890.81;8250584;28;20396;-61
2021/06/27 11:46:55;;;;;;;2.93;2.73;;;;;;;30.12;31.76;97883.72;8250978;28;20205;-61
2021/06/27 11:50:59;;;;;;;3.00;2.80;;;;;;;30.41;31.29;97892.53;8251238;28;20492;-61
2021/06/27 11:55:05;;;;;;;3.20;2.80;;;;;;;30.53;31.31;97885.63;8250883;28;20210;-61
2021/06/27 11:59:12;;;;;;;5.17;3.37;;;;;;;29.24;32.78;97891.09;8250680;28;20217;-61
2021/06/27 12:03:16;;;;;;;3.13;2.90;;;;;;;29.68;32.41;97879.41;8251253;28;20229;-61
2021/06/27 12:07:31;;;;;;;3.67;3.20;;;;;;;29.55;30.43;97873.97;8250862;28;20402;-61
2021/06/27 12:11:33;;;;;;;4.87;4.37;;;;;;;28.98;31.24;97870.31;8250747;28;20248;-61
2021/06/27 12:15:40;;;;;;;4.47;4.17;;;;;;;29.52;32.49;97861.84;8250746;28;20221;-61
2021/06/27 12:19:51;;;;;;;4.73;2.87;;;;;;;30.31;34.04;97871.50;8250625;28;20217;-61
2021/06/27 12:23:57;;;;;;;3.17;2.93;;;;;;;30.26;33.26;97863.25;8249536;28;20244;-61
2021/06/27 12:28:02;;;;;;;4.83;2.77;;;;;;;29.12;33.80;97865.94;8251016;28;20210;-61
2021/06/27 12:32:06;;;;;;;3.73;2.60;;;;;;;29.10;32.05;97858.13;8250686;28;20211;-62
2021/06/27 12:36:11;;;;;;;2.73;2.53;;;;;;;28.59;33.98;97852.81;8250619;28;20217;-61
2021/06/27 12:40:15;;;;;;;2.90;2.70;;;;;;;29.10;33.67;97858.13;8249129;28;20198;-62
2021/06/27 12:44:18;;;;;;;2.57;2.37;;;;;;;29.34;32.81;97867.63;8248791;28;20229;-61
2021/06/27 12:48:28;;;;;;;2.90;2.60;;;;;;;29.76;32.06;97847.31;8249121;28;20379;-62
2021/06/27 12:52:31;;;;;;;2.47;2.27;;;;;;;29.99;31.52;97854.25;8219237;28;20406;-61
2021/06/27 12:56:49;;;;;;;2.57;2.37;;;;;;;30.20;30.11;97854.19;8226858;28;20204;-61
2021/06/27 13:01:02;;;;;;;2.57;2.37;;;;;;;30.62;31.32;97859.56;8252534;28;20206;-61
2021/06/27 13:05:08;;;;;;;4.73;2.60;;;;;;;30.98;31.43;97859.31;8254146;28;20241;-62
2021/06/27 13:09:14;;;;;;;2.97;2.10;;;;;;;30.28;28.11;97855.03;8253823;28;20195;-62
2021/06/27 13:13:29;;;;;;;2.33;2.13;;;;;;;29.82;30.21;97846.53;8254176;28;20233;-61
2021/06/27 13:17:41;;;;;;;2.70;2.50;;;;;;;29.39;30.61;97845.72;8252743;28;20228;-61
2021/06/27 13:21:46;;;;;;;3.03;2.27;;;;;;;30.10;29.52;97842.19;8251327;28;20218;-62
2021/06/27 13:25:51;;;;;;;2.80;2.60;;;;;;;30.39;28.67;97841.16;8253844;28;20225;-62
2021/06/27 13:30:15;;;;;;;2.43;2.23;;;;;;;30.37;31.57;97849.38;8253952;28;20405;-61
2021/06/27 13:34:31;;;;;;;3.13;2.27;;;;;;;30.76;31.09;97849.75;8247798;28;20212;-61
2021/06/27 13:38:40;;;;;;;5.70;2.50;;;;;;;30.30;29.97;97843.13;8251807;28;20202;-62
2021/06/27 13:42:43;;;;;;;2.47;2.27;;;;;;;29.62;29.41;97834.84;8253322;28;20205;-61
2021/06/27 13:46:46;;;;;;;2.90;2.20;;;;;;;29.76;29.53;97835.81;8249890;28;20244;-62
2021/06/27 13:50:49;;;;;;;2.40;2.20;;;;;;;29.99;29.70;97835.56;8252407;28;20208;-61
2021/06/27 13:54:54;;;;;;;2.03;1.93;;;;;;;30.31;29.21;97833.25;8252353;28;20206;-61
2021/06/27 13:58:57;;;;;;;3.57;2.17;;;;;;;30.19;29.56;97835.69;8252181;28;20201;-61
2021/06/27 14:03:00;;;;;;;2.70;2.50;;;;;;;29.93;31.31;97820.31;8251677;28;20210;-61
2021/06/27 14:07:03;;;;;;;3.73;2.30;;;;;;;30.21;30.75;97820.28;8251853;28;20238;-62
2021/06/27 14:11:07;;;;;;;2.60;2.40;;;;;;;30.33;31.92;97832.09;8252016;28;20225;-62
2021/06/27 14:15:11;;;;;;;2.43;2.10;;;;;;;30.16;29.76;97820.06;8252827;28;20514;-61
2021/06/27 14:19:15;;;;;;;2.90;2.00;;;;;;;29.07;31.42;97817.69;8252246;28;20271;-61
2021/06/27 14:23:18;;;;;;;2.70;2.10;;;;;;;29.40;32.91;97824.19;8251414;28;20202;-61
2021/06/27 14:27:22;;;;;;;2.30;2.10;;;;;;;29.20;30.87;97816.00;8251216;28;20242;-61
2021/06/27 14:31:26;;;;;;;2.37;2.17;;;;;;;29.71;32.38;97803.50;8248270;28;20214;-61
2021/06/27 14:35:29;;;;;;;4.53;2.20;;;;;;;29.39;33.26;97805.72;8251125;28;20208;-61
2021/06/27 14:39:32;;;;;;;4.70;2.20;;;;;;;29.33;32.88;97801.16;8251307;28;20403;-61
2021/06/27 14:43:37;;;;;;;7.27;2.30;;;;;;;29.11;33.28;97808.28;8251238;28;20555;-61
2021/06/27 14:47:39;;;;;;;2.83;2.63;;;;;;;28.65;32.30;97804.13;8251899;28;20202;-61
2021/06/27 14:51:42;;;;;;;3.07;2.10;;;;;;;28.67;32.38;97804.75;8252288;28;20203;-61
2021/06/27 14:55:46;;;;;;;2.20;2.00;;;;;;;28.69;32.84;97797.41;8252539;28;20210;-61
2021/06/27 14:59:50;;;;;;;8.53;2.80;;;;;;;28.79;33.11;97794.44;8251548;28;20209;-60
2021/06/27 15:03:53;;;;;;;2.73;2.30;;;;;;;29.13;31.56;97798.28;8251277;28;20205;-61
2021/06/27 15:07:56;;;;;;;2.50;2.30;;;;;;;28.69;31.64;97793.91;8251020;28;20224;-61
2021/06/27 15:11:59;;;;;;;7.03;2.57;;;;;;;28.63;32.31;97793.63;8251247;28;20264;-61
2021/06/27 15:16:03;;;;;;;2.30;2.10;;;;;;;28.43;32.89;97792.56;8250585;28;20209;-61
2021/06/27 15:20:07;;;;;;;2.67;2.30;;;;;;;28.28;33.23;97782.75;8251755;28;20212;-61
2021/06/27 15:24:10;;;;;;;2.30;2.20;;;;;;;28.22;33.15;97780.00;8251474;28;20466;-62
2021/06/27 15:28:13;;;;;;;3.93;2.50;;;;;;;28.54;34.48;97775.28;8251328;28;20202;-61
2021/06/27 15:32:17;;;;;;;4.13;2.30;;;;;;;28.63;32.39;97772.31;8250854;28;20514;-61
2021/06/27 15:36:20;;;;;;;6.13;4.30;;;;;;;28.47;32.64;97773.34;8251007;28;20216;-61
2021/06/27 15:40:24;;;;;;;3.00;2.40;;;;;;;28.27;32.56;97764.28;8250881;28;20211;-61
2021/06/27 15:44:27;;;;;;;2.40;2.20;;;;;;;28.62;33.50;97764.53;8250421;28;20233;-61
2021/06/27 15:48:31;;;;;;;5.07;2.57;;;;;;;28.48;32.50;97771.50;8250692;28;20301;-62
2021/06/27 15:52:34;;;;;;;7.17;2.33;;;;;;;28.18;32.81;97765.41;8250191;28;20495;-62
2021/06/27 15:56:37;;;;;;;2.77;2.37;;;;;;;28.03;32.66;97768.09;8248543;28;20204;-62
2021/06/27 16:00:51;;;;;;;2.27;2.17;;;;;;;28.11;33.43;97767.16;8249041;28;20431;-62
2021/06/27 16:04:55;;;;;;;2.37;2.13;;;;;;;28.30;33.19;97768.44;8248672;28;20257;-62
2021/06/27 16:09:02;;;;;;;2.60;2.40;;;;;;;28.26;32.88;97763.47;8248698;28;20236;-62
2021/06/27 16:13:05;;;;;;;3.60;2.60;;;;;;;28.26;32.28;97766.13;8246236;28;20249;-62
2021/06/27 16:17:09;;;;;;;2.57;2.30;;;;;;;28.30;32.86;97752.47;8248629;28;20521;-62
2021/06/27 16:21:14;;;;;;;2.53;2.20;;;;;;;28.08;32.64;97741.72;8249238;28;20494;-63
2021/06/27 16:25:16;;;;;;;3.33;2.13;;;;;;;27.90;32.00;97735.97;8249656;28;20230;-62
2021/06/27 16:29:19;;;;;;;2.10;1.93;;;;;;;27.98;32.93;97750.00;8255633;28;20195;-62
2021/06/27 16:33:22;;;;;;;2.53;2.30;;;;;;;27.95;32.70;97755.72;8255821;28;20390;-62
2021/06/27 16:37:26;;;;;;;2.53;2.33;;;;;;;27.90;32.45;97755.44;8253343;28;20210;-62
2021/06/27 16:41:29;;;;;;;2.63;2.43;;;;;;;27.69;33.51;97745.47;8254668;28;20200;-62
2021/06/27 16:45:32;;;;;;;2.57;2.37;;;;;;;27.69;34.03;97748.13;8253884;28;20294;-61
2021/06/27 16:49:37;;;;;;;2.40;2.20;;;;;;;27.69;34.03;97748.94;8254144;28;20195;-62
2021/06/27 16:53:41;;;;;;;2.87;2.67;;;;;;;27.73;33.83;97753.91;8253481;28;20201;-62
2021/06/27 16:57:44;;;;;;;2.77;2.40;;;;;;;27.74;33.16;97751.09;8258574;28;20268;-63
2021/06/27 17:01:47;;;;;;;3.13;2.70;;;;;;;27.64;33.57;97750.50;8255651;28;20195;-63
2021/06/27 17:05:49;;;;;;;5.27;2.70;;;;;;;27.56;34.31;97748.75;8254297;28;20239;-63
2021/06/27 17:09:54;;;;;;;3.70;3.03;;;;;;;27.55;34.24;97740.94;8253979;28;20366;-63
2021/06/27 17:13:57;;;;;;;4.60;3.67;;;;;;;27.47;34.30;97741.88;8253781;28;20522;-63
2021/06/27 17:18:00;;;;;;;4.50;4.10;;;;;;;27.56;34.27;97745.28;8253779;28;20210;-63
2021/06/27 17:22:04;;;;;;;5.20;4.70;;;;;;;27.36;34.53;97751.13;8253945;28;20200;-63
2021/06/27 17:26:08;;;;;;;5.43;3.50;;;;;;;27.32;34.88;97749.81;8250934;28;20292;-63
2021/06/27 17:30:13;;;;;;;2.60;2.40;;;;;;;27.19;34.71;97752.22;8255540;28;20202;-62
2021/06/27 17:34:24;;;;;;;3.97;3.40;;;;;;;27.21;34.52;97755.53;8256070;28;20203;-62
2021/06/27 17:38:26;;;;;;;2.87;2.57;;;;;;;27.17;34.47;97757.72;8252932;28;20346;-62
2021/06/27 17:42:31;;;;;;;3.50;3.20;;;;;;;27.25;35.16;97757.69;8253243;28;20207;-62
2021/06/27 17:46:33;;;;;;;9.07;4.00;;;;;;;27.07;34.63;97752.66;8253442;28;20415;-63
2021/06/27 17:50:37;;;;;;;4.07;3.10;;;;;;;27.09;35.04;97761.28;8253123;28;20510;-63
2021/06/27 17:54:47;;;;;;;4.00;2.70;;;;;;;27.08;34.86;97754.31;8253177;28;20406;-63
2021/06/27 17:58:51;;;;;;;3.60;2.80;;;;;;;27.07;35.44;97759.78;8252757;28;20490;-63
2021/06/27 18:02:58;;;;;;;3.10;2.50;;;;;;;26.94;35.71;97759.56;8252556;28;20211;-63
2021/06/27 18:07:00;;;;;;;2.37;2.17;;;;;;;27.04;35.88;97757.50;8252422;28;20236;-62
2021/06/27 18:11:03;;;;;;;2.70;2.50;;;;;;;26.94;36.60;97763.06;8252102;28;20560;-62
2021/06/27 18:15:10;;;;;;;2.20;2.10;;;;;;;26.94;36.39;97762.22;8252081;28;20206;-62
2021/06/27 18:19:13;;;;;;;3.80;2.50;;;;;;;26.89;36.75;97760.09;8252278;28;20494;-63
2021/06/27 18:23:20;;;;;;;2.57;2.37;;;;;;;26.85;37.54;97764.13;8251635;28;20204;-65
2021/06/27 18:27:22;;;;;;;3.67;3.10;;;;;;;26.69;37.89;97773.00;8250857;28;20228;-62
2021/06/27 18:31:29;;;;;;;2.63;2.43;;;;;;;26.67;38.35;97769.69;8248716;28;20195;-63
2021/06/27 18:35:32;;;;;;;3.17;2.40;;;;;;;26.46;38.76;97767.63;8251012;28;20337;-63
2021/06/27 18:39:35;;;;;;;2.90;2.60;;;;;;;26.55;38.88;97773.72;8251168;28;20505;-62
2021/06/27 18:43:38;;;;;;;3.20;2.90;;;;;;;26.39;39.99;97767.50;8250850;28;20209;-62
2021/06/27 18:47:43;;;;;;;2.90;2.60;;;;;;;26.32;40.15;97767.34;8250569;28;20399;-62
2021/06/27 18:51:47;;;;;;;4.60;2.87;;;;;;;26.32;40.72;97780.63;8251218;28;20222;-63
2021/06/27 18:55:50;;;;;;;3.17;2.87;;;;;;;26.34;40.88;97789.22;8251040;28;20258;-62
2021/06/27 18:59:53;;;;;;;3.00;2.80;;;;;;;26.25;41.09;97782.31;8251227;28;20206;-63
2021/06/27 19:03:57;;;;;;;4.23;3.93;;;;;;;26.14;41.36;97775.56;8250940;28;20269;-62
2021/06/27 19:08:00;;;;;;;3.23;3.00;;;;;;;26.11;41.82;97780.38;8251099;28;20237;-63